sensor_id;sensor_type;location;lat;lon;timestamp;pressure;altitude;pressure_sealevel;temperature;humidity
70133;BME280;57495;49.922;7.966;2023-05-02T00:01:51;100098.59;;;11.76;86.02
70133;BME280;57495;49.922;7.966;2023-05-02T00:03:53;100097.66;;;11.68;87.64
70133;BME280;57495;49.922;7.966;2023-05-02T00:05:54;100091.38;;;11.59;87.91
70133;BME280;57495;49.922;7.966;2023-05-02T00:07:57;100090.16;;;11.71;88.36
70133;BME280;57495;49.922;7.966;2023-05-02T00:09:58;100092.84;;;11.71;88.59
70133;BME280;57495;49.922;7.966;2023-05-02T00:12:01;100088.00;;;11.57;89.48
70133;BME280;57495;49.922;7.966;2023-05-02T00:14:03;100093.34;;;11.57;88.30
70133;BME280;57495;49.922;7.966;2023-05-02T00:16:05;100094.91;;;11.50;89.63
70133;BME280;57495;49.922;7.966;2023-05-02T00:18:07;100095.03;;;11.58;89.13
70133;BME280;57495;49.922;7.966;2023-05-02T00:20:09;100094.72;;;11.61;88.34
70133;BME280;57495;49.922;7.966;2023-05-02T00:22:11;100095.72;;;11.60;89.16
70133;BME280;57495;49.922;7.966;2023-05-02T00:24:14;100085.53;;;11.73;87.83
70133;BME280;57495;49.922;7.966;2023-05-02T00:26:16;100093.28;;;11.67;87.62
70133;BME280;57495;49.922;7.966;2023-05-02T00:28:17;100090.84;;;11.46;88.38
70133;BME280;57495;49.922;7.966;2023-05-02T00:30:18;100104.88;;;11.20;89.86
70133;BME280;57495;49.922;7.966;2023-05-02T00:32:20;100100.47;;;11.38;89.54
70133;BME280;57495;49.922;7.966;2023-05-02T00:34:21;100104.38;;;11.44;88.23
70133;BME280;57495;49.922;7.966;2023-05-02T00:36:23;100103.41;;;11.35;88.19
70133;BME280;57495;49.922;7.966;2023-05-02T00:38:26;100098.75;;;11.37;88.15
70133;BME280;57495;49.922;7.966;2023-05-02T00:40:29;100100.66;;;11.27;88.92
70133;BME280;57495;49.922;7.966;2023-05-02T00:42:32;100102.13;;;11.39;88.41
70133;BME280;57495;49.922;7.966;2023-05-02T00:44:35;100099.31;;;11.41;87.28
70133;BME280;57495;49.922;7.966;2023-05-02T00:46:36;100102.13;;;11.39;86.88
70133;BME280;57495;49.922;7.966;2023-05-02T00:48:38;100100.16;;;11.41;87.81
70133;BME280;57495;49.922;7.966;2023-05-02T00:50:41;100106.97;;;11.26;87.42
70133;BME280;57495;49.922;7.966;2023-05-02T00:52:43;100111.34;;;11.27;87.89
70133;BME280;57495;49.922;7.966;2023-05-02T00:54:44;100110.16;;;11.39;87.66
70133;BME280;57495;49.922;7.966;2023-05-02T00:56:48;100108.38;;;11.30;88.22
70133;BME280;57495;49.922;7.966;2023-05-02T00:58:50;100110.06;;;11.31;88.33
70133;BME280;57495;49.922;7.966;2023-05-02T01:00:59;100106.09;;;11.35;88.24
70133;BME280;57495;49.922;7.966;2023-05-02T01:03:11;100113.72;;;11.30;88.86
70133;BME280;57495;49.922;7.966;2023-05-02T01:05:20;100104.00;;;11.19;89.36
70133;BME280;57495;49.922;7.966;2023-05-02T01:07:34;100103.06;;;11.11;90.98
70133;BME280;57495;49.922;7.966;2023-05-02T01:09:51;100111.22;;;11.19;90.31
70133;BME280;57495;49.922;7.966;2023-05-02T01:12:00;100113.31;;;11.25;90.02
70133;BME280;57495;49.922;7.966;2023-05-02T01:14:04;100120.25;;;11.18;89.70
70133;BME280;57495;49.922;7.966;2023-05-02T01:16:10;100109.22;;;11.21;89.91
70133;BME280;57495;49.922;7.966;2023-05-02T01:18:14;100116.28;;;11.22;90.24
70133;BME280;57495;49.922;7.966;2023-05-02T01:20:20;100121.06;;;11.28;89.69
70133;BME280;57495;49.922;7.966;2023-05-02T01:22:25;100127.81;;;11.32;89.90
70133;BME280;57495;49.922;7.966;2023-05-02T01:24:31;100133.34;;;11.11;91.60
70133;BME280;57495;49.922;7.966;2023-05-02T01:26:41;100124.00;;;11.25;91.27
70133;BME280;57495;49.922;7.966;2023-05-02T01:28:58;100132.63;;;11.19;91.73
70133;BME280;57495;49.922;7.966;2023-05-02T01:31:00;100121.34;;;11.25;91.64
70133;BME280;57495;49.922;7.966;2023-05-02T01:33:04;100121.06;;;11.28;91.93
70133;BME280;57495;49.922;7.966;2023-05-02T01:35:08;100122.34;;;11.24;92.56
70133;BME280;57495;49.922;7.966;2023-05-02T01:37:11;100131.50;;;11.12;92.68
70133;BME280;57495;49.922;7.966;2023-05-02T01:39:18;100136.00;;;11.21;92.52
70133;BME280;57495;49.922;7.966;2023-05-02T01:41:21;100135.88;;;11.13;92.42
70133;BME280;57495;49.922;7.966;2023-05-02T01:43:25;100130.09;;;11.27;91.93
70133;BME280;57495;49.922;7.966;2023-05-02T01:45:28;100133.28;;;11.31;92.08
70133;BME280;57495;49.922;7.966;2023-05-02T01:47:32;100139.06;;;11.36;91.60
70133;BME280;57495;49.922;7.966;2023-05-02T01:49:35;100147.41;;;11.23;92.00
70133;BME280;57495;49.922;7.966;2023-05-02T01:51:43;100131.91;;;11.27;91.97
70133;BME280;57495;49.922;7.966;2023-05-02T01:53:47;100139.38;;;11.23;92.02
70133;BME280;57495;49.922;7.966;2023-05-02T01:55:49;100144.16;;;11.19;92.15
70133;BME280;57495;49.922;7.966;2023-05-02T01:57:53;100146.00;;;11.19;91.58
70133;BME280;57495;49.922;7.966;2023-05-02T01:59:57;100150.53;;;11.18;91.17
70133;BME280;57495;49.922;7.966;2023-05-02T02:02:01;100158.00;;;11.15;91.06
70133;BME280;57495;49.922;7.966;2023-05-02T02:04:07;100169.53;;;11.15;89.63
70133;BME280;57495;49.922;7.966;2023-05-02T02:06:09;100157.16;;;11.05;89.64
70133;BME280;57495;49.922;7.966;2023-05-02T02:08:11;100164.47;;;11.02;89.58
70133;BME280;57495;49.922;7.966;2023-05-02T02:10:13;100174.34;;;10.92;89.17
70133;BME280;57495;49.922;7.966;2023-05-02T02:12:21;100178.44;;;10.96;88.83
70133;BME280;57495;49.922;7.966;2023-05-02T02:14:25;100176.34;;;10.90;88.72
70133;BME280;57495;49.922;7.966;2023-05-02T02:16:32;100173.38;;;10.83;89.74
70133;BME280;57495;49.922;7.966;2023-05-02T02:18:37;100175.88;;;10.66;89.01
70133;BME280;57495;49.922;7.966;2023-05-02T02:20:42;100179.97;;;10.70;88.98
70133;BME280;57495;49.922;7.966;2023-05-02T02:22:44;100181.50;;;10.43;92.16
70133;BME280;57495;49.922;7.966;2023-05-02T02:24:47;100183.91;;;10.46;93.52
70133;BME280;57495;49.922;7.966;2023-05-02T02:26:49;100190.09;;;10.56;91.92
70133;BME280;57495;49.922;7.966;2023-05-02T02:28:51;100183.91;;;10.66;92.66
70133;BME280;57495;49.922;7.966;2023-05-02T02:30:53;100189.00;;;10.69;92.05
70133;BME280;57495;49.922;7.966;2023-05-02T02:32:54;100185.03;;;10.63;93.31
70133;BME280;57495;49.922;7.966;2023-05-02T02:34:57;100185.88;;;10.73;92.99
70133;BME280;57495;49.922;7.966;2023-05-02T02:37:00;100194.06;;;10.72;92.70
70133;BME280;57495;49.922;7.966;2023-05-02T02:39:12;100194.06;;;10.72;92.85
70133;BME280;57495;49.922;7.966;2023-05-02T02:41:21;100193.47;;;10.49;92.45
70133;BME280;57495;49.922;7.966;2023-05-02T02:43:28;100195.44;;;10.56;94.08
70133;BME280;57495;49.922;7.966;2023-05-02T02:45:37;100198.41;;;10.53;93.39
70133;BME280;57495;49.922;7.966;2023-05-02T02:47:41;100207.53;;;10.41;94.45
70133;BME280;57495;49.922;7.966;2023-05-02T02:49:48;100206.25;;;10.45;95.25
70133;BME280;57495;49.922;7.966;2023-05-02T02:51:59;100208.09;;;10.54;97.63
70133;BME280;57495;49.922;7.966;2023-05-02T02:54:08;100213.31;;;10.56;95.86
70133;BME280;57495;49.922;7.966;2023-05-02T02:56:14;100211.59;;;10.45;96.54
70133;BME280;57495;49.922;7.966;2023-05-02T02:58:28;100213.41;;;10.35;97.33
70133;BME280;57495;49.922;7.966;2023-05-02T03:00:32;100208.41;;;10.51;95.73
70133;BME280;57495;49.922;7.966;2023-05-02T03:02:35;100219.34;;;10.48;96.15
70133;BME280;57495;49.922;7.966;2023-05-02T03:04:40;100221.31;;;10.46;95.37
70133;BME280;57495;49.922;7.966;2023-05-02T03:06:42;100218.06;;;10.33;96.03
70133;BME280;57495;49.922;7.966;2023-05-02T03:08:45;100221.59;;;10.43;96.50
70133;BME280;57495;49.922;7.966;2023-05-02T03:10:46;100226.94;;;10.43;96.15
70133;BME280;57495;49.922;7.966;2023-05-02T03:12:47;100228.91;;;10.51;96.43
70133;BME280;57495;49.922;7.966;2023-05-02T03:14:49;100231.91;;;10.57;97.69
70133;BME280;57495;49.922;7.966;2023-05-02T03:16:51;100244.44;;;10.67;97.44
70133;BME280;57495;49.922;7.966;2023-05-02T03:18:52;100237.56;;;10.74;97.05
70133;BME280;57495;49.922;7.966;2023-05-02T03:20:53;100242.75;;;10.66;98.19
70133;BME280;57495;49.922;7.966;2023-05-02T03:22:55;100243.63;;;10.76;99.07
70133;BME280;57495;49.922;7.966;2023-05-02T03:24:58;100241.91;;;10.75;99.45
70133;BME280;57495;49.922;7.966;2023-05-02T03:26:59;100241.78;;;10.76;99.75
70133;BME280;57495;49.922;7.966;2023-05-02T03:29:01;100251.38;;;10.89;99.74
70133;BME280;57495;49.922;7.966;2023-05-02T03:31:02;100245.59;;;10.83;100.00
70133;BME280;57495;49.922;7.966;2023-05-02T03:33:04;100248.13;;;10.95;100.00
70133;BME280;57495;49.922;7.966;2023-05-02T03:35:07;100256.59;;;11.00;100.00
70133;BME280;57495;49.922;7.966;2023-05-02T03:37:09;100257.16;;;11.03;100.00
70133;BME280;57495;49.922;7.966;2023-05-02T03:39:10;100248.72;;;11.08;100.00
70133;BME280;57495;49.922;7.966;2023-05-02T03:41:13;100263.66;;;11.11;100.00
70133;BME280;57495;49.922;7.966;2023-05-02T03:43:15;100266.16;;;11.02;100.00
70133;BME280;57495;49.922;7.966;2023-05-02T03:45:16;100258.84;;;10.85;100.00
70133;BME280;57495;49.922;7.966;2023-05-02T03:47:18;100262.22;;;10.97;100.00
70133;BME280;57495;49.922;7.966;2023-05-02T03:49:19;100261.94;;;11.00;100.00
70133;BME280;57495;49.922;7.966;2023-05-02T03:51:21;100253.50;;;10.95;100.00
70133;BME280;57495;49.922;7.966;2023-05-02T03:53:22;100263.06;;;10.97;100.00
70133;BME280;57495;49.922;7.966;2023-05-02T03:55:23;100262.78;;;10.91;100.00
70133;BME280;57495;49.922;7.966;2023-05-02T03:57:30;100259.09;;;10.92;100.00
70133;BME280;57495;49.922;7.966;2023-05-02T03:59:32;100266.47;;;10.99;100.00
70133;BME280;57495;49.922;7.966;2023-05-02T04:01:34;100264.47;;;10.92;100.00
70133;BME280;57495;49.922;7.966;2023-05-02T04:03:35;100262.78;;;10.91;100.00
70133;BME280;57495;49.922;7.966;2023-05-02T04:05:37;100267.56;;;11.07;100.00
70133;BME280;57495;49.922;7.966;2023-05-02T04:07:38;100269.28;;;11.08;100.00
70133;BME280;57495;49.922;7.966;2023-05-02T04:09:40;100278.16;;;11.08;100.00
70133;BME280;57495;49.922;7.966;2023-05-02T04:11:41;100280.25;;;11.05;100.00
70133;BME280;57495;49.922;7.966;2023-05-02T04:13:44;100282.53;;;11.09;100.00
70133;BME280;57495;49.922;7.966;2023-05-02T04:15:45;100281.69;;;11.09;100.00
70133;BME280;57495;49.922;7.966;2023-05-02T04:17:46;100280.13;;;10.96;100.00
70133;BME280;57495;49.922;7.966;2023-05-02T04:19:48;100281.69;;;11.09;100.00
70133;BME280;57495;49.922;7.966;2023-05-02T04:21:50;100284.91;;;11.02;100.00
70133;BME280;57495;49.922;7.966;2023-05-02T04:23:51;100291.25;;;11.01;100.00
70133;BME280;57495;49.922;7.966;2023-05-02T04:25:53;100289.84;;;11.07;100.00
70133;BME280;57495;49.922;7.966;2023-05-02T04:27:55;100297.31;;;11.13;100.00
70133;BME280;57495;49.922;7.966;2023-05-02T04:29:58;100305.66;;;11.20;100.00
70133;BME280;57495;49.922;7.966;2023-05-02T04:31:59;100301.97;;;11.21;100.00
70133;BME280;57495;49.922;7.966;2023-05-02T04:34:01;100298.16;;;11.14;100.00
70133;BME280;57495;49.922;7.966;2023-05-02T04:36:04;100307.88;;;11.25;100.00
70133;BME280;57495;49.922;7.966;2023-05-02T04:38:05;100310.56;;;11.25;100.00
70133;BME280;57495;49.922;7.966;2023-05-02T04:40:08;100314.94;;;11.26;100.00
70133;BME280;57495;49.922;7.966;2023-05-02T04:42:10;100315.50;;;11.29;100.00
70133;BME280;57495;49.922;7.966;2023-05-02T04:44:11;100322.28;;;11.33;100.00
70133;BME280;57495;49.922;7.966;2023-05-02T04:46:15;100320.88;;;11.39;100.00
70133;BME280;57495;49.922;7.966;2023-05-02T04:48:16;100321.44;;;11.43;100.00
70133;BME280;57495;49.922;7.966;2023-05-02T04:50:18;100329.59;;;11.51;100.00
70133;BME280;57495;49.922;7.966;2023-05-02T04:52:19;100330.16;;;11.45;100.00
70133;BME280;57495;49.922;7.966;2023-05-02T04:54:21;100332.97;;;11.43;100.00
70133;BME280;57495;49.922;7.966;2023-05-02T04:56:22;100335.94;;;11.50;100.00
70133;BME280;57495;49.922;7.966;2023-05-02T04:58:24;100342.28;;;11.49;100.00
70133;BME280;57495;49.922;7.966;2023-05-02T05:00:26;100344.00;;;11.50;100.00
70133;BME280;57495;49.922;7.966;2023-05-02T05:02:28;100343.56;;;11.45;100.00
70133;BME280;57495;49.922;7.966;2023-05-02T05:04:30;100353.84;;;11.39;100.00
70133;BME280;57495;49.922;7.966;2023-05-02T05:06:31;100351.88;;;11.51;100.00
70133;BME280;57495;49.922;7.966;2023-05-02T05:08:33;100352.72;;;11.52;100.00
70133;BME280;57495;49.922;7.966;2023-05-02T05:10:34;100349.47;;;11.58;100.00
70133;BME280;57495;49.922;7.966;2023-05-02T05:12:36;100347.63;;;11.58;100.00
70133;BME280;57495;49.922;7.966;2023-05-02T05:14:37;100352.56;;;11.63;100.00
70133;BME280;57495;49.922;7.966;2023-05-02T05:16:38;100345.66;;;11.70;100.00
70133;BME280;57495;49.922;7.966;2023-05-02T05:18:41;100348.50;;;11.69;100.00
70133;BME280;57495;49.922;7.966;2023-05-02T05:20:42;100358.78;;;11.73;100.00
70133;BME280;57495;49.922;7.966;2023-05-02T05:22:44;100356.81;;;11.75;100.00
70133;BME280;57495;49.922;7.966;2023-05-02T05:24:50;100357.78;;;11.74;98.66
70133;BME280;57495;49.922;7.966;2023-05-02T05:26:52;100365.66;;;11.86;98.74
70133;BME280;57495;49.922;7.966;2023-05-02T05:28:53;100363.44;;;11.91;98.43
70133;BME280;57495;49.922;7.966;2023-05-02T05:30:54;100372.63;;;11.98;98.18
70133;BME280;57495;49.922;7.966;2023-05-02T05:32:56;100369.38;;;11.94;99.39
70133;BME280;57495;49.922;7.966;2023-05-02T05:34:59;100379.50;;;12.01;97.64
70133;BME280;57495;49.922;7.966;2023-05-02T05:37:01;100388.56;;;11.99;96.69
70133;BME280;57495;49.922;7.966;2023-05-02T05:39:02;100381.50;;;11.98;95.40
70133;BME280;57495;49.922;7.966;2023-05-02T05:41:05;100385.28;;;12.25;95.69
70133;BME280;57495;49.922;7.966;2023-05-02T05:43:07;100383.44;;;12.26;96.03
70133;BME280;57495;49.922;7.966;2023-05-02T05:45:09;100388.47;;;12.29;96.49
70133;BME280;57495;49.922;7.966;2023-05-02T05:47:11;100386.09;;;12.35;96.11
70133;BME280;57495;49.922;7.966;2023-05-02T05:49:14;100384.38;;;12.44;96.37
70133;BME280;57495;49.922;7.966;2023-05-02T05:51:17;100391.22;;;12.56;96.53
70133;BME280;57495;49.922;7.966;2023-05-02T05:53:19;100390.44;;;12.46;96.15
70133;BME280;57495;49.922;7.966;2023-05-02T05:55:21;100398.50;;;12.36;96.23
70133;BME280;57495;49.922;7.966;2023-05-02T05:57:22;100400.88;;;12.49;95.96
70133;BME280;57495;49.922;7.966;2023-05-02T05:59:24;100405.38;;;12.49;96.41
70133;BME280;57495;49.922;7.966;2023-05-02T06:01:26;100406.94;;;12.51;96.41
70133;BME280;57495;49.922;7.966;2023-05-02T06:03:28;100409.59;;;12.61;96.74
70133;BME280;57495;49.922;7.966;2023-05-02T06:05:30;100415.38;;;12.56;95.84
70133;BME280;57495;49.922;7.966;2023-05-02T06:07:32;100417.91;;;12.68;95.76
70133;BME280;57495;49.922;7.966;2023-05-02T06:09:34;100418.88;;;12.67;94.58
70133;BME280;57495;49.922;7.966;2023-05-02T06:11:35;100416.28;;;12.85;93.45
70133;BME280;57495;49.922;7.966;2023-05-02T06:13:37;100420.78;;;12.94;93.89
70133;BME280;57495;49.922;7.966;2023-05-02T06:15:39;100420.50;;;13.15;93.19
70133;BME280;57495;49.922;7.966;2023-05-02T06:17:40;100419.47;;;13.26;89.34
70133;BME280;57495;49.922;7.966;2023-05-02T06:19:42;100416.47;;;13.57;91.32
70133;BME280;57495;49.922;7.966;2023-05-02T06:21:43;100419.69;;;13.60;89.42
70133;BME280;57495;49.922;7.966;2023-05-02T06:23:46;100425.69;;;13.72;88.35
70133;BME280;57495;49.922;7.966;2023-05-02T06:25:47;100426.00;;;13.87;88.11
70133;BME280;57495;49.922;7.966;2023-05-02T06:27:49;100427.22;;;13.75;87.78
70133;BME280;57495;49.922;7.966;2023-05-02T06:29:51;100433.66;;;13.64;88.73
70133;BME280;57495;49.922;7.966;2023-05-02T06:31:54;100446.63;;;13.50;88.19
70133;BME280;57495;49.922;7.966;2023-05-02T06:33:55;100444.84;;;13.41;88.83
70133;BME280;57495;49.922;7.966;2023-05-02T06:35:57;100449.69;;;13.38;89.71
70133;BME280;57495;49.922;7.966;2023-05-02T06:37:58;100440.63;;;13.39;89.66
70133;BME280;57495;49.922;7.966;2023-05-02T06:40:02;100452.75;;;13.43;89.67
70133;BME280;57495;49.922;7.966;2023-05-02T06:42:04;100448.00;;;13.54;88.38
70133;BME280;57495;49.922;7.966;2023-05-02T06:44:05;100448.47;;;13.50;88.11
70133;BME280;57495;49.922;7.966;2023-05-02T06:46:07;100454.22;;;13.37;88.84
70133;BME280;57495;49.922;7.966;2023-05-02T06:48:09;100448.41;;;13.60;87.27
70133;BME280;57495;49.922;7.966;2023-05-02T06:50:10;100464.78;;;13.66;87.10
70133;BME280;57495;49.922;7.966;2023-05-02T06:52:12;100454.31;;;13.63;86.27
70133;BME280;57495;49.922;7.966;2023-05-02T06:54:13;100461.28;;;13.56;86.01
70133;BME280;57495;49.922;7.966;2023-05-02T06:56:16;100459.63;;;13.73;86.73
70133;BME280;57495;49.922;7.966;2023-05-02T06:58:17;100462.03;;;13.94;86.16
70133;BME280;57495;49.922;7.966;2023-05-02T07:00:20;100474.72;;;14.02;85.31
70133;BME280;57495;49.922;7.966;2023-05-02T07:02:21;100470.94;;;14.13;84.47
70133;BME280;57495;49.922;7.966;2023-05-02T07:04:23;100476.22;;;14.22;84.18
70133;BME280;57495;49.922;7.966;2023-05-02T07:06:24;100482.97;;;14.44;83.10
70133;BME280;57495;49.922;7.966;2023-05-02T07:08:26;100473.38;;;14.24;83.20
70133;BME280;57495;49.922;7.966;2023-05-02T07:10:27;100477.41;;;14.20;83.50
70133;BME280;57495;49.922;7.966;2023-05-02T07:12:30;100479.16;;;14.11;82.82
70133;BME280;57495;49.922;7.966;2023-05-02T07:14:31;100491.38;;;14.05;82.68
70133;BME280;57495;49.922;7.966;2023-05-02T07:16:33;100490.22;;;13.90;83.11
70133;BME280;57495;49.922;7.966;2023-05-02T07:18:34;100497.69;;;13.96;82.02
70133;BME280;57495;49.922;7.966;2023-05-02T07:20:36;100493.91;;;13.89;81.29
70133;BME280;57495;49.922;7.966;2023-05-02T07:22:39;100497.22;;;13.83;81.29
70133;BME280;57495;49.922;7.966;2023-05-02T07:24:40;100495.81;;;13.79;82.34
70133;BME280;57495;49.922;7.966;2023-05-02T07:26:42;100498.06;;;13.83;82.45
70133;BME280;57495;49.922;7.966;2023-05-02T07:28:45;100502.25;;;13.86;82.81
70133;BME280;57495;49.922;7.966;2023-05-02T07:30:46;100511.03;;;13.88;81.78
70133;BME280;57495;49.922;7.966;2023-05-02T07:32:48;100513.63;;;13.80;81.14
70133;BME280;57495;49.922;7.966;2023-05-02T07:34:49;100513.72;;;13.88;82.30
70133;BME280;57495;49.922;7.966;2023-05-02T07:36:53;100503.69;;;13.90;81.86
70133;BME280;57495;49.922;7.966;2023-05-02T07:38:55;100508.34;;;13.88;81.13
70133;BME280;57495;49.922;7.966;2023-05-02T07:40:57;100509.75;;;13.92;80.61
70133;BME280;57495;49.922;7.966;2023-05-02T07:43:00;100515.34;;;13.81;80.06
70133;BME280;57495;49.922;7.966;2023-05-02T07:45:03;100526.09;;;13.81;81.21
70133;BME280;57495;49.922;7.966;2023-05-02T07:47:06;100514.31;;;13.82;80.42
70133;BME280;57495;49.922;7.966;2023-05-02T07:49:08;100524.13;;;13.73;81.93
70133;BME280;57495;49.922;7.966;2023-05-02T07:51:09;100524.31;;;13.71;81.51
70133;BME280;57495;49.922;7.966;2023-05-02T07:53:11;100532.66;;;13.68;80.88
70133;BME280;57495;49.922;7.966;2023-05-02T07:55:12;100535.56;;;13.57;81.69
70133;BME280;57495;49.922;7.966;2023-05-02T07:57:14;100538.25;;;13.57;80.81
70133;BME280;57495;49.922;7.966;2023-05-02T07:59:15;100538.53;;;13.54;81.71
70133;BME280;57495;49.922;7.966;2023-05-02T08:01:18;100539.28;;;13.46;80.73
70133;BME280;57495;49.922;7.966;2023-05-02T08:03:20;100541.00;;;13.38;82.05
70133;BME280;57495;49.922;7.966;2023-05-02T08:05:21;100546.09;;;13.41;81.92
70133;BME280;57495;49.922;7.966;2023-05-02T08:07:23;100549.50;;;13.23;82.32
70133;BME280;57495;49.922;7.966;2023-05-02T08:09:24;100556.31;;;13.18;82.35
70133;BME280;57495;49.922;7.966;2023-05-02T08:11:26;100552.09;;;13.15;81.43
70133;BME280;57495;49.922;7.966;2023-05-02T08:13:27;100552.09;;;13.15;81.33
70133;BME280;57495;49.922;7.966;2023-05-02T08:15:29;100556.31;;;13.18;82.23
70133;BME280;57495;49.922;7.966;2023-05-02T08:17:31;100564.78;;;13.23;83.30
70133;BME280;57495;49.922;7.966;2023-05-02T08:19:33;100559.97;;;13.36;82.54
70133;BME280;57495;49.922;7.966;2023-05-02T08:21:34;100567.38;;;13.14;84.29
70133;BME280;57495;49.922;7.966;2023-05-02T08:23:36;100568.50;;;13.12;84.06
70133;BME280;57495;49.922;7.966;2023-05-02T08:25:37;100571.72;;;13.15;84.29
70133;BME280;57495;49.922;7.966;2023-05-02T08:27:39;100572.00;;;13.22;84.21
70133;BME280;57495;49.922;7.966;2023-05-02T08:29:40;100578.22;;;13.23;85.38
70133;BME280;57495;49.922;7.966;2023-05-02T08:31:42;100579.06;;;13.23;85.23
70133;BME280;57495;49.922;7.966;2023-05-02T08:33:44;100582.75;;;13.22;85.46
70133;BME280;57495;49.922;7.966;2023-05-02T08:35:46;100581.75;;;13.23;86.04
70133;BME280;57495;49.922;7.966;2023-05-02T08:37:47;100589.28;;;13.10;86.19
70133;BME280;57495;49.922;7.966;2023-05-02T08:39:48;100589.97;;;13.22;85.73
70133;BME280;57495;49.922;7.966;2023-05-02T08:41:50;100583.72;;;13.21;86.36
70133;BME280;57495;49.922;7.966;2023-05-02T08:43:52;100590.81;;;13.22;86.44
70133;BME280;57495;49.922;7.966;2023-05-02T08:45:56;100588.53;;;13.37;85.74
70133;BME280;57495;49.922;7.966;2023-05-02T08:48:00;100594.88;;;13.46;86.50
70133;BME280;57495;49.922;7.966;2023-05-02T08:50:05;100595.25;;;13.51;87.47
70133;BME280;57495;49.922;7.966;2023-05-02T08:52:07;100593.56;;;13.50;86.78
70133;BME280;57495;49.922;7.966;2023-05-02T08:54:15;100595.81;;;13.54;85.29
70133;BME280;57495;49.922;7.966;2023-05-02T08:56:17;100600.28;;;13.73;85.68
70133;BME280;57495;49.922;7.966;2023-05-02T08:58:19;100600.97;;;13.93;84.57
70133;BME280;57495;49.922;7.966;2023-05-02T09:00:20;100602.03;;;14.10;85.90
70133;BME280;57495;49.922;7.966;2023-05-02T09:02:28;100603.50;;;14.23;84.08
70133;BME280;57495;49.922;7.966;2023-05-02T09:04:40;100600.59;;;14.52;82.61
70133;BME280;57495;49.922;7.966;2023-05-02T09:06:43;100603.91;;;14.46;83.27
70133;BME280;57495;49.922;7.966;2023-05-02T09:08:46;100610.19;;;14.64;83.40
70133;BME280;57495;49.922;7.966;2023-05-02T09:10:48;100612.09;;;15.16;82.40
70133;BME280;57495;49.922;7.966;2023-05-02T09:12:50;100607.19;;;16.07;79.55
70133;BME280;57495;49.922;7.966;2023-05-02T09:15:10;100598.34;;;16.96;77.97
70133;BME280;57495;49.922;7.966;2023-05-02T09:17:11;100612.47;;;17.48;75.90
70133;BME280;57495;49.922;7.966;2023-05-02T09:19:22;100601.84;;;17.94;72.63
70133;BME280;57495;49.922;7.966;2023-05-02T09:21:25;100607.56;;;18.30;72.20
70133;BME280;57495;49.922;7.966;2023-05-02T09:23:49;100602.28;;;18.60;69.61
70133;BME280;57495;49.922;7.966;2023-05-02T09:25:51;100611.28;;;18.29;67.37
70133;BME280;57495;49.922;7.966;2023-05-02T09:27:54;100608.81;;;17.88;68.47
70133;BME280;57495;49.922;7.966;2023-05-02T09:30:17;100612.25;;;17.66;69.55
70133;BME280;57495;49.922;7.966;2023-05-02T09:32:18;100618.19;;;17.53;69.78
70133;BME280;57495;49.922;7.966;2023-05-02T09:34:21;100614.00;;;17.34;68.74
70133;BME280;57495;49.922;7.966;2023-05-02T09:36:23;100622.19;;;16.85;69.02
70133;BME280;57495;49.922;7.966;2023-05-02T09:38:24;100617.09;;;16.73;69.25
70133;BME280;57495;49.922;7.966;2023-05-02T09:40:27;100626.97;;;16.32;70.55
70133;BME280;57495;49.922;7.966;2023-05-02T09:42:30;100622.72;;;16.13;71.05
70133;BME280;57495;49.922;7.966;2023-05-02T09:44:36;100629.38;;;15.92;71.18
70133;BME280;57495;49.922;7.966;2023-05-02T09:46:38;100627.66;;;15.83;71.86
70133;BME280;57495;49.922;7.966;2023-05-02T09:48:53;100624.06;;;15.74;73.10
70133;BME280;57495;49.922;7.966;2023-05-02T09:50:56;100629.56;;;15.64;73.98
70133;BME280;57495;49.922;7.966;2023-05-02T09:53:02;100634.59;;;15.59;73.51
70133;BME280;57495;49.922;7.966;2023-05-02T09:55:19;100632.97;;;15.40;73.35
70133;BME280;57495;49.922;7.966;2023-05-02T09:57:38;100630.94;;;15.42;74.34
70133;BME280;57495;49.922;7.966;2023-05-02T09:59:41;100633.50;;;15.44;73.59
70133;BME280;57495;49.922;7.966;2023-05-02T10:01:42;100636.47;;;15.33;75.41
70133;BME280;57495;49.922;7.966;2023-05-02T10:03:46;100633.75;;;15.33;73.62
70133;BME280;57495;49.922;7.966;2023-05-02T10:05:48;100633.88;;;15.49;74.72
70133;BME280;57495;49.922;7.966;2023-05-02T10:07:50;100629.38;;;15.92;72.85
70133;BME280;57495;49.922;7.966;2023-05-02T10:09:53;100623.13;;;16.59;73.65
70133;BME280;57495;49.922;7.966;2023-05-02T10:11:55;100618.47;;;16.94;71.83
70133;BME280;57495;49.922;7.966;2023-05-02T10:13:58;100614.56;;;16.96;70.32
70133;BME280;57495;49.922;7.966;2023-05-02T10:16:01;100625.97;;;17.48;70.40
70133;BME280;57495;49.922;7.966;2023-05-02T10:18:06;100625.78;;;17.66;67.08
70133;BME280;57495;49.922;7.966;2023-05-02T10:20:13;100628.66;;;17.64;62.17
70133;BME280;57495;49.922;7.966;2023-05-02T10:22:19;100632.41;;;17.47;61.72
70133;BME280;57495;49.922;7.966;2023-05-02T10:24:23;100634.75;;;17.50;68.42
70133;BME280;57495;49.922;7.966;2023-05-02T10:26:24;100635.47;;;17.35;65.69
70133;BME280;57495;49.922;7.966;2023-05-02T10:28:27;100630.63;;;16.98;64.30
70133;BME280;57495;49.922;7.966;2023-05-02T10:30:32;100631.94;;;16.77;66.15
70133;BME280;57495;49.922;7.966;2023-05-02T10:32:35;100632.94;;;16.68;66.97
70133;BME280;57495;49.922;7.966;2023-05-02T10:34:38;100628.88;;;16.72;66.51
70133;BME280;57495;49.922;7.966;2023-05-02T10:36:40;100629.91;;;16.79;66.39
70133;BME280;57495;49.922;7.966;2023-05-02T10:38:42;100625.72;;;17.02;66.89
70133;BME280;57495;49.922;7.966;2023-05-02T10:40:49;100629.22;;;17.27;65.38
70133;BME280;57495;49.922;7.966;2023-05-02T10:42:55;100629.31;;;17.58;66.65